Agua Nueva, Texas
Current Conditions -  °F | °C
As of 7:35 PM on Tuesday 21 Oct 2014 (Local Time) from KHBV Reporting Station
Scattered Clouds Scattered Clouds  
Wind Chill: 25°   Ceiling: Unl
Heat Index: 26°   Visibility: 10mi
Dew Point: 19°   Wind: 9mph
Humidity: 70%   Direction: 80°E
Pressure: 29.97"   Gusts: NA
Location:  27.0695°N, 98.7494°W
Report Text: KHBV 220035Z AUTO 08008KT 10SM SCT031 25/19 A2997 RMK AO2 T02490190 PWINO
Loading
Personal Weather Stations






























Interactive Weather Map
Tropical Storm Tracking
New forecast layout! Learn more

10-Day Weather Forecast

Advertisements
Track Severe Weather on mobile